Time;durP1;ratioP1;P1;durP2;ratioP2;P2;SDS_P1;SDS_P2;PMS_P1;PMS_P2;Temp;Humidity;BMP_temperature;BMP_pressure;BME280_temperature;BME280_humidity;BME280_pressure;Samples;Min_cycle;Max_cycle;Signal;HPM_P1;HPM_P2
2022/09/17 00:02:21;;;;;;;;;;;;;;;9.78;92.31;101279.28;5015529;28;19921;-96
2022/09/17 00:04:47;;;;;;;;;;;;;;;9.73;92.60;101282.72;5017925;28;19921;-96
2022/09/17 00:07:12;;;;;;;;;;;;;;;9.75;92.71;101287.91;5013397;28;19918;-96
2022/09/17 00:09:38;;;;;;;;;;;;;;;9.76;92.48;101299.16;5013576;28;20001;-96
2022/09/17 00:12:03;;;;;;;;;;;;;;;9.77;92.48;101303.47;5151558;23;20029;-96
2022/09/17 00:17:03;;;;;;;;;;;;;;;9.81;92.42;101297.38;5029940;28;19921;-96
2022/09/17 00:19:28;;;;;;;;;;;;;;;9.82;92.25;101301.69;5037705;28;19947;-96
2022/09/17 00:21:53;;;;;;;;;;;;;;;9.83;92.29;101293.94;5035370;28;19920;-96
2022/09/17 00:24:19;;;;;;;;;;;;;;;9.83;92.24;101296.53;5040165;28;19914;-96
2022/09/17 00:26:44;;;;;;;;;;;;;;;9.86;92.35;101288.72;5037478;28;19917;-96
2022/09/17 00:29:10;;;;;;;;;;;;;;;9.87;92.85;101293.03;5037679;28;19921;-96
2022/09/17 00:31:36;;;;;;;;;;;;;;;9.88;92.83;101305.13;5033490;28;20332;-96
2022/09/17 00:34:02;;;;;;;;;;;;;;;9.88;92.93;101301.69;5032301;28;19925;-96
2022/09/17 00:36:28;;;;;;;;;;;;;;;9.86;92.78;101304.25;5030314;28;19913;-96
2022/09/17 00:38:55;;;;;;;;;;;;;;;9.87;93.26;101302.53;5031225;28;19920;-96
2022/09/17 00:41:21;;;;;;;;;;;;;;;9.87;92.83;101308.56;5036258;28;19898;-96
2022/09/17 00:44:09;;;;;;;;;;;;;;;9.87;92.69;101310.31;5037011;28;19951;-96
2022/09/17 00:46:36;;;;;;;;;;;;;;;9.89;92.31;101311.19;5008468;28;20050;-96
2022/09/17 00:51:39;;;;;;;;;;;;;;;9.91;92.61;101304.22;5636924;23;19906;-96
2022/09/17 00:57:12;;;;;;;;;;;;;;;9.92;92.34;101318.91;5166753;23;20294;-96
2022/09/17 01:00:03;;;;;;;;;;;;;;;9.93;92.38;101317.22;5215291;23;19920;-96
2022/09/17 01:02:28;;;;;;;;;;;;;;;9.92;92.49;101318.06;5036797;28;19921;-96
2022/09/17 01:10:48;;;;;;;;;;;;;;;9.92;92.55;101320.66;5429496;23;19928;-96
2022/09/17 01:13:17;;;;;;;;;;;;;;;9.92;92.04;101329.28;5209620;23;19913;-96
2022/09/17 01:31:58;;;;;;;;;;;;;;;9.96;92.20;101331.03;5011061;28;19922;-96
2022/09/17 01:34:27;;;;;;;;;;;;;;;9.97;91.91;101332.75;5017423;28;19924;-96
2022/09/17 01:36:53;;;;;;;;;;;;;;;9.99;92.13;101331.00;5016607;28;19914;-96
2022/09/17 01:47:09;;;;;;;;;;;;;;;9.99;92.23;101337.91;5322339;22;19922;-96
2022/09/17 01:49:54;;;;;;;;;;;;;;;10.00;91.76;101339.63;5210630;23;19948;-96
2022/09/17 01:52:20;;;;;;;;;;;;;;;10.01;91.94;101347.44;5016896;28;19910;-96
2022/09/17 02:00:04;;;;;;;;;;;;;;;9.95;92.33;101349.19;5735551;23;20362;-96
2022/09/17 02:05:39;;;;;;;;;;;;;;;9.87;91.99;101346.63;5749522;23;19943;31
2022/09/17 03:16:45;;;;;;;;;;;;;;;9.83;91.85;101358.75;6127600;22;19919;-96
2022/09/17 05:06:13;;;;;;;;;;;;;;;9.22;92.56;101388.25;3945260;22;20123;-96
2022/09/17 05:08:39;;;;;;;;;;;;;;;9.20;92.52;101384.78;5032432;28;19922;-96
2022/09/17 05:11:04;;;;;;;;;;;;;;;9.18;92.69;101386.53;5037738;28;19927;-96
2022/09/17 05:21:15;;;;;;;;;;;;;;;9.14;91.77;101401.19;5081263;22;19906;-96
2022/09/17 05:23:40;;;;;;;;;;;;;;;9.13;91.52;101402.06;5019622;28;19953;-96
2022/09/17 05:26:08;;;;;;;;;;;;;;;9.12;91.93;101393.41;5017778;28;19968;-96
2022/09/17 05:28:33;;;;;;;;;;;;;;;9.10;91.32;101405.53;5015666;28;19937;-96
2022/09/17 05:30:59;;;;;;;;;;;;;;;9.09;92.04;101405.50;5013833;28;19910;-96
2022/09/17 05:33:24;;;;;;;;;;;;;;;9.09;91.78;101414.16;5016566;28;19913;-96
2022/09/17 05:35:50;;;;;;;;;;;;;;;9.10;91.61;101415.00;5020582;28;19969;-96
2022/09/17 05:45:53;;;;;;;;;;;;;;;9.07;91.68;101422.75;5015123;28;19988;-96
2022/09/17 05:48:18;;;;;;;;;;;;;;;9.07;92.20;101421.06;5015559;28;19949;-96
2022/09/17 05:50:44;;;;;;;;;;;;;;;9.07;91.59;101423.63;5016769;28;19914;-96
2022/09/17 05:53:22;;;;;;;;;;;;;;;9.09;91.68;101421.91;5009042;28;20028;-96
2022/09/17 05:55:47;;;;;;;;;;;;;;;9.09;91.72;101421.91;5010317;28;19918;-96
2022/09/17 05:58:17;;;;;;;;;;;;;;;9.12;91.72;101428.81;5249419;22;19944;-96
2022/09/17 06:00:44;;;;;;;;;;;;;;;9.19;92.10;101438.31;5213504;23;19909;-96
2022/09/17 06:03:10;;;;;;;;;;;;;;;9.26;92.18;101444.34;5019611;28;19917;-96
2022/09/17 06:05:35;;;;;;;;;;;;;;;9.34;92.59;101449.53;5019524;28;20396;-96
2022/09/17 06:08:00;;;;;;;;;;;;;;;9.37;92.85;101452.13;5024908;28;19949;-94
2022/09/17 06:10:26;;;;;;;;;;;;;;;9.39;92.58;101445.22;5014938;28;19924;-87
2022/09/17 06:12:55;;;;;;;;;;;;;;;9.41;93.13;101452.13;5013711;28;19937;-88
2022/09/17 06:15:20;;;;;;;;;;;;;;;9.43;92.67;101450.41;5014128;28;19917;-88
2022/09/17 06:17:46;;;;;;;;;;;;;;;9.44;93.06;101448.66;5013347;28;19984;-88
2022/09/17 06:20:11;;;;;;;;;;;;;;;9.46;92.75;101433.13;5013747;28;20011;-88
2022/09/17 06:22:36;;;;;;;;;;;;;;;9.46;92.72;101433.97;5013482;28;19960;-88
2022/09/17 06:25:02;;;;;;;;;;;;;;;9.49;93.34;101435.69;5013286;28;19925;-88
2022/09/17 06:27:31;;;;;;;;;;;;;;;9.49;92.77;101452.13;5014259;28;19953;-88
2022/09/17 06:29:57;;;;;;;;;;;;;;;9.48;92.18;101457.28;5013821;28;19928;-88
2022/09/17 06:32:22;;;;;;;;;;;;;;;9.49;92.45;101464.19;5013738;28;19917;-88
2022/09/17 06:34:48;;;;;;;;;;;;;;;9.50;91.94;101466.81;5013357;28;20286;-88
2022/09/17 06:37:13;;;;;;;;;;;;;;;9.53;92.12;101451.25;5013954;28;19917;-88
2022/09/17 06:39:38;;;;;;;;;;;;;;;9.57;92.26;101455.56;5013113;28;19913;-88
2022/09/17 06:42:04;;;;;;;;;;;;;;;9.63;92.34;101452.09;5013706;28;19917;-88
2022/09/17 06:44:29;;;;;;;;;;;;;;;9.72;92.53;101446.03;5013731;28;19964;-88
2022/09/17 06:46:54;;;;;;;;;;;;;;;10.00;92.25;101440.75;5013190;28;20016;-88
2022/09/17 06:49:20;;;;;;;;;;;;;;;10.12;91.71;101438.13;5014791;28;20313;-90
2022/09/17 06:51:46;;;;;;;;;;;;;;;10.12;91.53;101432.09;5015069;28;19972;-96
2022/09/17 06:54:11;;;;;;;;;;;;;;;10.15;91.62;101445.03;5022247;28;19917;-92
2022/09/17 06:56:36;;;;;;;;;;;;;;;10.28;91.67;101436.34;5033001;28;19909;-96
2022/09/17 06:59:10;;;;;;;;;;;;;;;11.31;92.65;101436.56;4990692;28;1073369;-91
2022/09/17 07:06:58;;;;;;;;;;;;;;;15.80;77.49;101447.72;5271645;23;19921;-96
2022/09/17 07:09:23;;;;;;;;;;;;;;;15.74;75.86;101454.00;5017530;28;20389;-94
2022/09/17 07:11:49;;;;;;;;;;;;;;;15.24;79.24;101457.88;5015608;28;19913;-94
2022/09/17 07:14:14;;;;;;;;;;;;;;;14.60;79.92;101453.25;5025439;28;19949;-96
2022/09/17 07:16:39;;;;;;;;;;;;;;;13.97;77.84;101460.66;5033107;28;19921;-96
2022/09/17 07:19:04;;;;;;;;;;;;;;;13.49;80.04;101455.47;5024679;28;19917;-96
2022/09/17 07:21:30;;;;;;;;;;;;;;;13.08;78.62;101460.47;5017221;28;19913;-96
2022/09/17 07:23:55;;;;;;;;;;;;;;;12.74;79.16;101464.41;5018016;28;19936;-94
2022/09/17 07:26:20;;;;;;;;;;;;;;;12.43;79.10;101461.41;5017075;28;20277;-96
2022/09/17 07:28:45;;;;;;;;;;;;;;;12.18;80.75;101454.75;5016227;28;20412;-96
2022/09/17 07:31:11;;;;;;;;;;;;;;;12.00;79.09;101453.22;5015228;28;19914;-94
2022/09/17 07:33:37;;;;;;;;;;;;;;;11.88;80.99;101461.13;5014928;28;19916;-96
2022/09/17 07:36:06;;;;;;;;;;;;;;;11.79;81.13;101467.31;5014449;28;19948;-92
2022/09/17 07:38:32;;;;;;;;;;;;;;;11.74;81.99;101458.66;5014607;28;20369;-94
2022/09/17 07:40:58;;;;;;;;;;;;;;;11.71;82.16;101454.38;5014611;28;19921;-92
2022/09/17 07:43:24;;;;;;;;;;;;;;;11.70;82.60;101457.84;5014719;28;19966;-92
2022/09/17 07:45:49;;;;;;;;;;;;;;;11.74;82.86;101456.06;5014880;28;19917;-94
2022/09/17 07:48:15;;;;;;;;;;;;;;;11.82;83.76;101458.59;5014385;28;20271;-94
2022/09/17 07:50:40;;;;;;;;;;;;;;;11.90;83.67;101452.44;5014667;28;19913;-95
2022/09/17 07:53:05;;;;;;;;;;;;;;;12.01;84.02;101451.50;5014694;28;19917;-94
2022/09/17 07:55:30;;;;;;;;;;;;;;;12.11;83.58;101455.72;5015306;28;19913;-95
2022/09/17 07:57:55;;;;;;;;;;;;;;;12.14;83.32;101460.00;5014164;28;20389;-96
2022/09/17 08:00:20;;;;;;;;;;;;;;;12.18;83.46;101456.50;5017837;28;20004;-94
2022/09/17 08:02:51;;;;;;;;;;;;;;;12.19;81.70;101461.66;5016870;28;19917;-93
2022/09/17 08:05:16;;;;;;;;;;;;;;;12.24;82.58;101458.16;5020122;28;19944;-88
2022/09/17 08:07:41;;;;;;;;;;;;;;;12.26;81.01;101453.81;5017987;28;19941;-93
2022/09/17 08:10:07;;;;;;;;;;;;;;;12.28;79.06;101452.03;5018617;28;19979;-94
2022/09/17 08:12:32;;;;;;;;;;;;;;;12.30;79.75;101458.06;5018874;28;19913;-95
2022/09/17 08:14:57;;;;;;;;;;;;;;;12.36;80.80;101455.41;5021790;28;19993;-96
2022/09/17 08:17:22;;;;;;;;;;;;;;;12.41;79.26;101458.78;5018966;28;19913;-94
2022/09/17 08:19:47;;;;;;;;;;;;;;;12.47;79.29;101465.66;5022167;28;19913;-86
2022/09/17 08:22:12;;;;;;;;;;;;;;;12.54;79.30;101453.44;5019442;28;19920;-93
2022/09/17 08:24:38;;;;;;;;;;;;;;;12.65;80.19;101464.56;5017384;28;20274;-92
2022/09/17 08:27:03;;;;;;;;;;;;;;;12.76;80.90;101459.22;5018024;28;19913;-93
2022/09/17 08:29:28;;;;;;;;;;;;;;;12.88;80.40;101460.75;5018078;28;19936;-92
2022/09/17 08:31:53;;;;;;;;;;;;;;;12.95;80.12;101458.03;5018172;28;20412;-92
2022/09/17 08:34:18;;;;;;;;;;;;;;;13.01;79.06;101467.50;5017629;28;19913;-91
2022/09/17 08:36:44;;;;;;;;;;;;;;;13.06;78.87;101462.22;5017388;28;19961;-91
2022/09/17 08:39:10;;;;;;;;;;;;;;;13.13;80.04;101464.72;5017773;28;19913;-90
2022/09/17 08:41:38;;;;;;;;;;;;;;;13.24;80.19;101466.28;5017965;28;19914;-91
2022/09/17 08:44:05;;;;;;;;;;;;;;;13.35;78.92;101471.28;5017887;28;19914;-92
2022/09/17 08:46:32;;;;;;;;;;;;;;;13.45;78.72;101462.50;5017495;28;20020;-91
2022/09/17 08:49:10;;;;;;;;;;;;;;;13.56;78.59;101462.28;5017530;28;19996;-90
2022/09/17 08:51:45;;;;;;;;;;;;;;;13.66;78.63;101468.22;5017744;28;19913;-91
2022/09/17 08:54:21;;;;;;;;;;;;;;;13.75;78.16;101457.59;5017170;28;20384;-91
2022/09/17 08:56:51;;;;;;;;;;;;;;;13.80;78.18;101466.19;5017389;28;19913;-90
2022/09/17 08:59:21;;;;;;;;;;;;;;;13.82;77.71;101467.03;5016306;28;20006;-88
2022/09/17 09:01:49;;;;;;;;;;;;;;;13.87;77.26;101467.81;5016644;28;20362;-87
2022/09/17 09:04:23;;;;;;;;;;;;;;;13.93;76.67;101468.56;5019449;28;20389;-95
2022/09/17 09:06:52;;;;;;;;;;;;;;;13.90;77.21;101470.34;5018520;28;20283;-90
2022/09/17 09:09:20;;;;;;;;;;;;;;;13.84;76.48;101482.66;5018098;28;19917;-88
2022/09/17 09:11:47;;;;;;;;;;;;;;;13.64;75.91;101485.63;5015855;28;19917;-84
2022/09/17 09:14:19;;;;;;;;;;;;;;;13.38;78.08;101492.13;5014333;28;19917;-85
2022/09/17 09:16:44;;;;;;;;;;;;;;;13.13;79.06;101480.34;5015487;28;19917;-86
2022/09/17 09:19:17;;;;;;;;;;;;;;;13.02;80.00;101491.81;5015972;28;20282;-86
2022/09/17 09:21:59;;;;;;;;;;;;;;;12.97;80.33;101482.34;5014129;28;20325;-86
2022/09/17 09:24:25;;;;;;;;;;;;;;;13.06;80.52;101489.13;5016190;28;19921;-86
2022/09/17 09:26:50;;;;;;;;;;;;;;;13.19;81.56;101482.00;5018464;28;19917;-95
2022/09/17 09:29:18;;;;;;;;;;;;;;;13.36;80.36;101480.84;5022624;28;19913;-94
2022/09/17 09:32:02;;;;;;;;;;;;;;;13.51;80.68;101490.22;5018460;28;19999;-95
2022/09/17 09:34:28;;;;;;;;;;;;;;;13.69;78.03;101479.44;5016908;28;19971;-89
2022/09/17 09:37:04;;;;;;;;;;;;;;;13.89;77.36;101486.91;5016565;28;19913;-91
2022/09/17 09:39:34;;;;;;;;;;;;;;;14.02;76.59;101491.88;5016948;28;19920;-92
2022/09/17 09:42:17;;;;;;;;;;;;;;;14.11;77.88;101481.28;5016613;28;19914;-92
2022/09/17 09:44:42;;;;;;;;;;;;;;;14.31;77.20;101482.59;5016432;28;20156;-90
2022/09/17 09:47:31;;;;;;;;;;;;;;;14.33;75.01;101489.50;5016398;28;19952;-91
2022/09/17 09:49:59;;;;;;;;;;;;;;;14.25;71.80;101478.38;4972201;28;20469;-93
2022/09/17 09:52:39;;;;;;;;;;;;;;;14.25;74.98;101482.72;5015536;28;20016;-85
2022/09/17 09:55:23;;;;;;;;;;;;;;;14.19;73.02;101483.69;5015165;28;19965;-84
2022/09/17 09:57:50;;;;;;;;;;;;;;;14.29;75.80;101482.66;5014789;28;19915;-85
2022/09/17 10:00:42;;;;;;;;;;;;;;;14.43;73.86;101481.47;5015189;28;19917;-85
2022/09/17 10:03:10;;;;;;;;;;;;;;;14.40;74.62;101484.19;5004798;28;19917;-84
2022/09/17 10:05:35;;;;;;;;;;;;;;;14.36;74.18;101480.75;5014595;28;19952;-85
2022/09/17 10:08:10;;;;;;;;;;;;;;;14.42;74.89;101479.75;5014825;28;19959;-85
2022/09/17 10:10:37;;;;;;;;;;;;;;;14.41;70.99;101483.28;5014356;28;20362;-92
2022/09/17 10:13:04;;;;;;;;;;;;;;;14.39;69.31;101482.47;5017265;28;19917;-90
2022/09/17 10:15:29;;;;;;;;;;;;;;;14.34;69.65;101490.38;5015821;28;19948;-89
2022/09/17 10:18:12;;;;;;;;;;;;;;;14.33;70.13;101486.06;5014287;28;19976;-90
2022/09/17 10:20:47;;;;;;;;;;;;;;;14.46;70.63;101487.53;5014911;28;20032;-88
2022/09/17 10:23:12;;;;;;;;;;;;;;;14.44;65.25;101491.91;5015059;28;19914;-88
2022/09/17 10:25:42;;;;;;;;;;;;;;;14.62;70.01;101498.50;5014324;28;19975;-88
2022/09/17 10:28:22;;;;;;;;;;;;;;;14.80;69.26;101486.81;5014486;28;19924;-89
2022/09/17 10:30:58;;;;;;;;;;;;;;;14.89;68.46;101474.41;5014044;28;19924;-89
2022/09/17 10:33:26;;;;;;;;;;;;;;;14.96;69.62;101481.22;5014874;28;20396;-89
2022/09/17 10:36:00;;;;;;;;;;;;;;;15.07;70.39;101476.59;5015858;28;20000;-93
2022/09/17 10:38:30;;;;;;;;;;;;;;;15.10;67.59;101473.91;5015897;28;20043;-91
2022/09/17 10:41:15;;;;;;;;;;;;;;;15.05;69.08;101470.53;5015644;28;19913;-89
2022/09/17 10:43:41;;;;;;;;;;;;;;;14.81;67.68;101480.66;5016687;28;19919;-89
2022/09/17 10:46:14;;;;;;;;;;;;;;;14.72;67.50;101480.03;5015304;28;20015;-91
2022/09/17 10:48:44;;;;;;;;;;;;;;;14.73;68.18;101472.16;5015164;28;20370;-92
2022/09/17 10:51:09;;;;;;;;;;;;;;;14.81;68.83;101469.38;5015059;28;19914;-92
2022/09/17 10:53:53;;;;;;;;;;;;;;;14.93;68.90;101474.31;5014893;28;20036;-91
2022/09/17 10:56:22;;;;;;;;;;;;;;;15.04;68.76;101473.19;5015167;28;19921;-92
2022/09/17 10:59:07;;;;;;;;;;;;;;;15.15;70.35;101465.94;5014885;28;19948;-92
2022/09/17 11:01:32;;;;;;;;;;;;;;;15.35;70.40;101468.09;5014111;28;19920;-91
2022/09/17 11:04:16;;;;;;;;;;;;;;;15.41;70.05;101474.91;5015261;28;19913;-91
2022/09/17 11:06:50;;;;;;;;;;;;;;;15.52;67.18;101470.25;5014549;28;19924;-92
2022/09/17 11:09:25;;;;;;;;;;;;;;;15.62;67.41;101462.16;5016675;28;19917;-96
2022/09/17 11:12:08;;;;;;;;;;;;;;;15.70;68.99;101466.31;5016725;28;19924;-95
2022/09/17 11:14:40;;;;;;;;;;;;;;;15.83;66.57;101456.34;5015303;28;20278;-95
2022/09/17 11:17:23;;;;;;;;;;;;;;;15.72;64.66;101459.25;5015430;28;19913;-96
2022/09/17 11:19:54;;;;;;;;;;;;;;;15.73;64.39;101458.34;5014558;28;19921;-95
2022/09/17 11:22:29;;;;;;;;;;;;;;;15.80;65.30;101455.59;5015339;28;19975;-94
2022/09/17 11:24:54;;;;;;;;;;;;;;;15.74;62.09;101452.22;5014994;28;19913;-93
2022/09/17 11:27:45;;;;;;;;;;;;;;;15.74;64.15;101457.44;5015060;28;19914;-95
2022/09/17 11:30:15;;;;;;;;;;;;;;;15.78;63.52;101454.75;5015068;28;20004;-92
2022/09/17 11:32:59;;;;;;;;;;;;;;;15.84;65.11;101457.19;5014113;28;19918;-94
2022/09/17 11:35:30;;;;;;;;;;;;;;;15.83;60.32;101447.63;5014791;28;19914;-94
2022/09/17 11:38:14;;;;;;;;;;;;;;;15.39;59.00;101463.63;5010164;28;20377;-94
2022/09/17 11:40:58;;;;;;;;;;;;;;;15.11;62.83;101448.63;5014543;28;19992;-95
2022/09/17 11:43:28;;;;;;;;;;;;;;;15.00;63.27;101443.66;5014714;28;19990;-95
2022/09/17 11:46:02;;;;;;;;;;;;;;;15.05;63.40;101448.78;5014615;28;19913;-93
2022/09/17 11:48:31;;;;;;;;;;;;;;;15.18;63.47;101441.47;5014436;28;19918;-93
2022/09/17 11:50:59;;;;;;;;;;;;;;;15.17;61.87;101439.75;5014229;28;19964;-92
2022/09/17 11:53:31;;;;;;;;;;;;;;;15.28;64.75;101441.22;5014600;28;19913;-91
2022/09/17 11:56:09;;;;;;;;;;;;;;;15.48;65.35;101439.00;5014560;28;19917;-93
2022/09/17 11:58:53;;;;;;;;;;;;;;;15.61;64.49;101437.75;5014613;28;20392;-93
2022/09/17 12:01:27;;;;;;;;;;;;;;;15.66;63.26;101435.00;5014563;28;19953;-92
2022/09/17 12:03:56;;;;;;;;;;;;;;;15.71;64.12;101436.59;5010095;28;19917;-92
2022/09/17 12:06:34;;;;;;;;;;;;;;;15.81;63.89;101429.34;5014091;28;19917;-92
2022/09/17 12:09:05;;;;;;;;;;;;;;;15.89;61.86;101416.94;5014766;28;19917;-88
2022/09/17 12:11:36;;;;;;;;;;;;;;;15.75;62.46;101425.16;5014557;28;19921;-94
2022/09/17 12:14:22;;;;;;;;;;;;;;;15.63;64.74;101424.63;5014701;28;19913;-91
2022/09/17 12:16:49;;;;;;;;;;;;;;;15.71;66.50;101433.97;5014003;28;19924;-92
2022/09/17 12:19:33;;;;;;;;;;;;;;;15.79;66.77;101423.31;5013969;28;19913;-91
2022/09/17 12:22:00;;;;;;;;;;;;;;;15.94;66.37;101419.41;5013411;28;20415;-90
2022/09/17 12:24:26;;;;;;;;;;;;;;;16.08;66.00;101429.53;5013975;28;19917;-91
2022/09/17 12:27:04;;;;;;;;;;;;;;;16.13;66.39;101429.38;5012362;28;19920;-87
2022/09/17 12:29:47;;;;;;;;;;;;;;;16.17;65.92;101425.75;5013639;28;19913;-89
2022/09/17 12:32:21;;;;;;;;;;;;;;;16.13;63.76;101422.38;5013372;28;19914;-90
2022/09/17 12:34:54;;;;;;;;;;;;;;;16.11;65.44;101428.56;5013700;28;19959;-90
2022/09/17 12:37:19;;;;;;;;;;;;;;;15.87;61.95;101413.53;5013792;28;19914;-91
2022/09/17 12:39:53;;;;;;;;;;;;;;;15.73;63.15;101411.25;5013911;28;19916;-91
2022/09/17 12:42:24;;;;;;;;;;;;;;;15.77;61.45;101412.00;5013976;28;20016;-91
2022/09/17 12:44:50;;;;;;;;;;;;;;;15.78;58.02;101410.28;5013373;28;20380;-90
2022/09/17 12:47:33;;;;;;;;;;;;;;;15.83;59.25;101409.25;5013822;28;20012;-92
2022/09/17 12:50:17;;;;;;;;;;;;;;;15.83;58.63;101408.38;5014112;28;20016;-91
2022/09/17 12:53:01;;;;;;;;;;;;;;;15.71;57.70;101407.81;5017305;28;19913;-90
2022/09/17 12:55:52;;;;;;;;;;;;;;;15.79;56.71;101406.75;5017350;28;19937;-92
2022/09/17 12:58:29;;;;;;;;;;;;;;;15.88;53.17;101402.13;5012231;28;19917;-88
2022/09/17 13:01:04;;;;;;;;;;;;;;;15.94;50.58;101392.41;5016820;28;20051;-90
2022/09/17 13:03:32;;;;;;;;;;;;;;;15.87;52.35;101405.69;5016847;28;19920;-88
2022/09/17 13:06:09;;;;;;;;;;;;;;;15.65;44.89;101420.22;5015453;28;19945;-91
2022/09/17 13:08:40;;;;;;;;;;;;;;;15.46;43.78;101407.63;5016564;28;20320;-91
2022/09/17 13:11:14;;;;;;;;;;;;;;;15.51;48.59;101403.16;5016543;28;19971;-89
2022/09/17 13:13:45;;;;;;;;;;;;;;;15.51;46.17;101407.50;5016734;28;19976;-89
2022/09/17 13:16:31;;;;;;;;;;;;;;;15.54;49.49;101410.88;5016841;28;19913;-89
2022/09/17 13:19:10;;;;;;;;;;;;;;;15.52;47.89;101409.22;5016983;28;19925;-92
2022/09/17 13:21:42;;;;;;;;;;;;;;;15.51;47.31;101403.16;5017052;28;19914;-92
2022/09/17 13:24:18;;;;;;;;;;;;;;;15.46;45.81;101410.25;5016775;28;19995;-88
2022/09/17 13:26:47;;;;;;;;;;;;;;;15.49;47.04;101412.78;5016178;28;19968;-88
2022/09/17 13:29:32;;;;;;;;;;;;;;;15.46;47.50;101401.56;5016642;28;19945;-91
2022/09/17 13:31:57;;;;;;;;;;;;;;;15.53;50.04;101395.25;5016162;28;19917;-89
2022/09/17 13:34:27;;;;;;;;;;;;;;;15.59;50.18;101393.31;5015995;28;19916;-88
2022/09/17 13:36:53;;;;;;;;;;;;;;;15.67;48.38;101384.38;5016258;28;19920;-88
2022/09/17 13:39:39;;;;;;;;;;;;;;;15.77;50.50;101401.53;5016092;28;19914;-89
2022/09/17 13:42:08;;;;;;;;;;;;;;;15.83;48.59;101393.53;5015576;28;20421;-90
2022/09/17 13:44:35;;;;;;;;;;;;;;;15.78;50.34;101403.25;5016434;28;19913;-91
2022/09/17 13:47:16;;;;;;;;;;;;;;;15.63;48.65;101394.09;5016217;28;19974;-90
2022/09/17 13:49:46;;;;;;;;;;;;;;;15.67;50.40;101392.25;5015315;28;19914;-90
2022/09/17 13:52:12;;;;;;;;;;;;;;;15.56;50.23;101397.78;5016299;28;20370;-88
2022/09/17 13:54:38;;;;;;;;;;;;;;;15.40;50.98;101392.13;5015586;28;19917;-94
2022/09/17 13:57:21;;;;;;;;;;;;;;;15.27;50.39;101402.03;5016787;28;19913;-90
2022/09/17 13:59:57;;;;;;;;;;;;;;;15.11;51.61;101396.31;5015543;28;20378;-87
2022/09/17 14:02:27;;;;;;;;;;;;;;;15.13;53.09;101397.16;5015491;28;19913;-89
2022/09/17 14:05:14;;;;;;;;;;;;;;;15.12;52.79;101405.88;5014917;28;20358;-89
2022/09/17 14:07:48;;;;;;;;;;;;;;;15.06;53.72;101404.28;5013577;28;19918;-89
2022/09/17 14:10:13;;;;;;;;;;;;;;;14.96;53.24;101419.38;5014807;28;20285;-87
2022/09/17 14:12:46;;;;;;;;;;;;;;;14.85;54.84;101410.94;5015346;28;20325;-91
2022/09/17 14:15:31;;;;;;;;;;;;;;;14.85;55.92;101416.16;5015066;28;19957;-88
2022/09/17 14:17:57;;;;;;;;;;;;;;;14.80;56.38;101423.22;5014805;28;19925;-87
2022/09/17 14:20:23;;;;;;;;;;;;;;;14.78;56.28;101419.78;5014842;28;20077;-88
2022/09/17 14:22:59;;;;;;;;;;;;;;;14.78;56.59;101422.41;5014569;28;19974;-87
2022/09/17 14:25:31;;;;;;;;;;;;;;;14.79;57.18;101416.28;5014860;28;19967;-87
2022/09/17 14:27:58;;;;;;;;;;;;;;;14.66;55.97;101423.53;5014404;28;20362;-88
2022/09/17 14:30:29;;;;;;;;;;;;;;;14.55;57.61;101415.06;5014428;28;19913;-87
2022/09/17 14:33:02;;;;;;;;;;;;;;;14.45;57.98;101417.03;5014748;28;19914;-87
2022/09/17 14:35:36;;;;;;;;;;;;;;;14.36;57.79;101424.19;5014716;28;19917;-87
2022/09/17 14:38:09;;;;;;;;;;;;;;;14.26;57.27;101420.06;5013768;28;19914;-86
2022/09/17 14:40:39;;;;;;;;;;;;;;;14.23;58.59;101427.94;5014452;28;19914;-88
2022/09/17 14:43:04;;;;;;;;;;;;;;;14.19;58.38;101439.31;5014327;28;20325;-87
2022/09/17 14:45:31;;;;;;;;;;;;;;;14.23;58.82;101434.94;5013719;28;19932;-87
2022/09/17 14:48:15;;;;;;;;;;;;;;;14.31;60.78;101436.47;5014392;28;19996;-87
2022/09/17 14:50:40;;;;;;;;;;;;;;;14.42;57.94;101427.53;5014009;28;19959;-87
2022/09/17 14:53:14;;;;;;;;;;;;;;;14.48;58.17;101416.97;5013739;28;20007;-87
2022/09/17 14:55:39;;;;;;;;;;;;;;;14.54;59.83;101422.03;5014262;28;19914;-86
2022/09/17 14:58:21;;;;;;;;;;;;;;;14.58;58.42;101431.53;5013785;28;20021;-86
2022/09/17 15:00:50;;;;;;;;;;;;;;;14.63;57.35;101432.31;5014201;28;20262;-86
2022/09/17 15:03:22;;;;;;;;;;;;;;;14.61;57.67;101425.38;5013855;28;19992;-87
2022/09/17 15:05:49;;;;;;;;;;;;;;;14.64;59.01;101434.00;5013603;28;19917;-89
2022/09/17 15:08:16;;;;;;;;;;;;;;;14.65;56.90;101425.25;5014353;28;20362;-89
2022/09/17 15:10:59;;;;;;;;;;;;;;;14.71;58.77;101431.28;5014087;28;19925;-87
2022/09/17 15:13:25;;;;;;;;;;;;;;;14.69;56.60;101427.84;5012421;28;19960;-86
2022/09/17 15:16:11;;;;;;;;;;;;;;;14.75;58.97;101420.72;5013717;28;20007;-87
2022/09/17 15:18:47;;;;;;;;;;;;;;;14.81;59.78;101414.50;4999739;28;20386;-87
2022/09/17 15:21:27;;;;;;;;;;;;;;;14.86;58.52;101417.00;5013338;28;20076;-87
2022/09/17 15:23:53;;;;;;;;;;;;;;;14.87;54.52;101427.41;5013631;28;20383;-88
2022/09/17 15:26:23;;;;;;;;;;;;;;;14.85;54.26;101430.94;5013158;28;19918;-87
2022/09/17 15:28:49;;;;;;;;;;;;;;;14.79;51.00;101424.13;5012858;28;19921;-87
2022/09/17 15:31:18;;;;;;;;;;;;;;;14.70;49.25;101419.97;5013902;28;19913;-87
2022/09/17 15:33:43;;;;;;;;;;;;;;;14.70;49.55;101417.34;5008540;28;19919;-86
2022/09/17 15:36:26;;;;;;;;;;;;;;;14.69;49.09;101431.34;5012397;28;19917;-87
2022/09/17 15:38:51;;;;;;;;;;;;;;;14.67;47.81;101431.34;5013294;28;20000;-87
2022/09/17 15:41:17;;;;;;;;;;;;;;;14.59;46.62;101421.94;5013219;28;20059;-86
2022/09/17 15:43:43;;;;;;;;;;;;;;;14.58;49.79;101433.31;5013208;28;19918;-87
2022/09/17 15:46:23;;;;;;;;;;;;;;;14.52;50.79;101431.69;5013153;28;19969;-86
2022/09/17 15:48:48;;;;;;;;;;;;;;;14.43;51.66;101434.47;5012013;28;19917;-87
2022/09/17 15:51:21;;;;;;;;;;;;;;;14.35;52.86;101439.88;5013470;28;20000;-87
2022/09/17 15:53:51;;;;;;;;;;;;;;;14.25;53.17;101431.38;5013087;28;20466;-87
2022/09/17 15:56:18;;;;;;;;;;;;;;;14.10;53.56;101437.78;5012727;28;19913;-87
2022/09/17 15:58:43;;;;;;;;;;;;;;;14.03;53.75;101433.56;5012838;28;19960;-86
2022/09/17 16:01:14;;;;;;;;;;;;;;;14.08;54.69;101438.69;5012650;28;20357;-87
2022/09/17 16:03:43;;;;;;;;;;;;;;;14.11;54.84;101431.69;5012758;28;19917;-87
2022/09/17 16:06:28;;;;;;;;;;;;;;;14.14;55.03;101439.44;5013094;28;19913;-87
2022/09/17 16:08:57;;;;;;;;;;;;;;;14.21;56.37;101434.94;4998299;28;19913;-87
2022/09/17 16:11:24;;;;;;;;;;;;;;;14.25;55.90;101441.81;5013283;28;19919;-85
2022/09/17 16:13:50;;;;;;;;;;;;;;;14.28;52.46;101436.53;5011946;28;19929;-86
2022/09/17 16:16:22;;;;;;;;;;;;;;;14.28;52.56;101444.38;5012651;28;19931;-87
2022/09/17 16:18:48;;;;;;;;;;;;;;;14.27;51.27;101445.28;5013030;28;19924;-85
2022/09/17 16:21:14;;;;;;;;;;;;;;;14.26;51.19;101454.00;5013978;28;19913;-86
2022/09/17 16:23:39;;;;;;;;;;;;;;;14.22;50.61;101449.72;5012379;28;20258;-86
2022/09/17 16:26:08;;;;;;;;;;;;;;;14.23;51.48;101454.03;5016138;28;20009;-87
2022/09/17 16:28:34;;;;;;;;;;;;;;;14.19;52.08;101452.38;5016873;28;20428;-87
2022/09/17 16:30:59;;;;;;;;;;;;;;;14.14;52.10;101449.88;5015945;28;19913;-86
2022/09/17 16:33:26;;;;;;;;;;;;;;;14.13;52.96;101452.53;5017211;28;19924;-87
2022/09/17 16:35:55;;;;;;;;;;;;;;;14.09;49.96;101462.16;5016695;28;19920;-86
2022/09/17 16:38:20;;;;;;;;;;;;;;;14.03;51.22;101460.53;5016183;28;20009;-86
2022/09/17 16:40:46;;;;;;;;;;;;;;;14.00;51.75;101464.97;5015023;28;20004;-86
2022/09/17 16:43:11;;;;;;;;;;;;;;;13.92;51.18;101470.31;5016076;28;20316;-86
2022/09/17 16:45:36;;;;;;;;;;;;;;;13.89;51.74;101467.75;5016473;28;19959;-87
2022/09/17 16:48:02;;;;;;;;;;;;;;;13.84;49.02;101470.47;5016374;28;20345;-86
2022/09/17 16:50:27;;;;;;;;;;;;;;;13.83;50.41;101465.28;5015994;28;19968;-87
2022/09/17 16:52:53;;;;;;;;;;;;;;;13.79;52.14;101477.50;5016617;28;19914;-88
2022/09/17 16:55:18;;;;;;;;;;;;;;;13.72;51.27;101471.56;5016577;28;19914;-87
2022/09/17 16:57:45;;;;;;;;;;;;;;;13.65;50.25;101482.97;5014707;28;20281;-86